METAR Data
IDs: Format: Raw Decoded Include TAF

Data at: 0141 UTC 24 Sep 2018

KLBB 240053Z 11005KT 10SM CLR 21/09 A2998 RMK AO2 SLP122 T02110089 $
KLBB 232353Z 13007KT 10SM CLR 26/08 A2998 RMK AO2 SLP117 T02560078 10278 20239 56010 $
KLBB 232253Z COR 17004KT 10SM CLR 27/07 A2998 RMK AO2 SLP116 T02670067 $
KLBB 232153Z 00000KT 10SM CLR 27/06 A2999 RMK AO2 SLP119 T02670061 $
KLBB 232053Z VRB04KT 10SM CLR 26/08 A3001 RMK AO2 SLP126 T02610078 56026 $
KLBB 231953Z 00000KT 10SM CLR 27/08 A3004 RMK AO2 SLP132 T02670078 $
KLBB 231853Z VRB03KT 10SM CLR 25/09 A3007 RMK AO2 SLP144 T02500094 $
KLBB 231753Z 26004KT 10SM CLR 24/10 A3010 RMK AO2 SLP155 T02390100 10239 20094 58005 $
KLBB 231653Z 00000KT 10SM CLR 22/10 A3011 RMK AO2 SLP161 T02220100 $
KLBB 231553Z 31004KT 10SM CLR 20/11 A3012 RMK AO2 SLP166 T02000111 $
KLBB 231453Z 29005KT 10SM CLR 16/11 A3012 RMK AO2 SLP168 T01610111 53009 $
KLBB 231353Z 32004KT 10SM CLR 12/09 A3011 RMK AO2 SLP167 T01220094 $
KLBB 231253Z 32006KT 10SM CLR 09/08 A3009 RMK AO2 SLP162 T00940078 $
KLBB 231153Z 33006KT 10SM CLR 09/08 A3008 RMK AO2 SLP155 T00940078 10133 20094 55003 $
KLBB 231053Z 33004KT 10SM CLR 10/08 A3008 RMK AO2 SLP152 T01000083 $
KLBB 230953Z COR 31006KT 9SM CLR 10/08 A3008 RMK AO2 SLP152 T01000083 $
KLBB 230853Z 00000KT 10SM CLR 11/09 A3009 RMK AO2 SLP154 T01110089 58009 $
KLBB 230753Z 32003KT 10SM CLR 13/09 A3011 RMK AO2 SLP159 T01280094 $
KLBB 230653Z 06007KT 10SM CLR 13/09 A3012 RMK AO2 SLP162 T01330094 $
KLBB 230553Z 04006KT 10SM CLR 13/10 A3012 RMK AO2 SLP167 T01330100 10233 20133 402560117 58005 $
KLBB 230453Z 03005KT 10SM CLR 14/11 A3013 RMK AO2 SLP171 T01390106 $
KLBB 230353Z 05006KT 10SM CLR 14/11 A3014 RMK AO2 SLP175 T01390111 $
KLBB 230253Z 07008KT 10SM FEW250 16/11 A3014 RMK AO2 SLP176 T01560111 53007 $
KLBB 230153Z 07008KT 10SM FEW250 17/11 A3013 RMK AO2 SLP172 T01720111 $
KLBB 230053Z 08007KT 10SM FEW100 SCT250 19/11 A3013 RMK AO2 SLP171 T01890111 $
KLBB 222353Z 05008KT 10SM FEW100 FEW250 23/08 A3012 RMK AO2 SLP162 T02330078 10256 20222 55005 $
KLBB 222253Z 03011KT 10SM FEW100 FEW250 24/08 A3011 RMK AO2 SLP157 T02440083 $
KLBB 222153Z 06013KT 10SM FEW100 FEW250 25/07 A3012 RMK AO2 SLP160 T02500072 $
KLBB 222053Z 03013G20KT 10SM FEW110 FEW250 25/08 A3013 RMK AO2 SLP165 T02500078 57022 $
KLBB 221953Z 02016KT 10SM FEW250 24/09 A3015 RMK AO2 SLP173 T02440089 $
KLBB 221853Z 02013KT 10SM FEW250 23/09 A3018 RMK AO2 SLP183 T02330094 $
KLBB 221753Z 01010G18KT 10SM FEW250 22/08 A3020 RMK AO2 SLP192 T02220083 10222 20117 58009 $
KLBB 221653Z 01012KT 10SM FEW250 21/06 A3022 RMK AO2 SLP197 T02060061 $
KLBB 221553Z 01012KT 10SM FEW250 18/06 A3024 RMK AO2 SLP206 T01780061 $
KLBB 221453Z 36012KT 10SM FEW040 FEW250 15/07 A3023 RMK AO2 SLP207 T01500072 50002 $
KLBB 221353Z 01012KT 10SM FEW032 13/08 A3024 RMK AO2 SLP210 T01330078 $